sensor_id;sensor_type;location;lat;lon;timestamp;pressure;altitude;pressure_sealevel;temperature;humidity
60228;BME280;46091;46.512;6.626;2023-04-06T05:18:25;97117.44;;;7.65;46.89
60228;BME280;46091;46.512;6.626;2023-04-06T05:20:28;97122.16;;;7.94;46.63
60228;BME280;46091;46.512;6.626;2023-04-06T05:22:31;97115.34;;;8.15;46.25
60228;BME280;46091;46.512;6.626;2023-04-06T05:24:34;97130.78;;;8.35;45.96
60228;BME280;46091;46.512;6.626;2023-04-06T05:26:37;97120.50;;;8.48;45.94
60228;BME280;46091;46.512;6.626;2023-04-06T05:28:40;97120.47;;;8.56;45.86
60228;BME280;46091;46.512;6.626;2023-04-06T05:30:45;97123.06;;;8.64;45.68
60228;BME280;46091;46.512;6.626;2023-04-06T05:32:48;97116.09;;;8.71;45.74
60228;BME280;46091;46.512;6.626;2023-04-06T05:34:53;97116.88;;;8.80;45.56
60228;BME280;46091;46.512;6.626;2023-04-06T05:36:56;97118.66;;;8.88;45.53
60228;BME280;46091;46.512;6.626;2023-04-06T05:38:58;97122.56;;;8.92;45.46
60228;BME280;46091;46.512;6.626;2023-04-06T05:41:01;97117.63;;;8.97;45.46
60228;BME280;46091;46.512;6.626;2023-04-06T05:43:04;97114.44;;;9.01;45.20
60228;BME280;46091;46.512;6.626;2023-04-06T05:45:08;97113.94;;;9.06;45.37
60228;BME280;46091;46.512;6.626;2023-04-06T05:47:12;97117.38;;;9.07;45.34
60228;BME280;46091;46.512;6.626;2023-04-06T05:49:16;97123.47;;;9.07;45.52
60228;BME280;46091;46.512;6.626;2023-04-06T05:51:20;97124.31;;;9.08;45.24
60228;BME280;46091;46.512;6.626;2023-04-06T05:53:23;97127.56;;;9.10;45.39
60228;BME280;46091;46.512;6.626;2023-04-06T05:55:27;97119.50;;;9.11;45.42
60228;BME280;46091;46.512;6.626;2023-04-06T05:57:30;97131.50;;;9.14;45.38
60228;BME280;46091;46.512;6.626;2023-04-06T05:59:33;97127.69;;;9.16;45.11
60228;BME280;46091;46.512;6.626;2023-04-06T06:01:36;97126.53;;;9.19;45.39
60228;BME280;46091;46.512;6.626;2023-04-06T06:03:39;97130.25;;;9.24;45.06
60228;BME280;46091;46.512;6.626;2023-04-06T06:05:42;97140.47;;;9.27;45.24
60228;BME280;46091;46.512;6.626;2023-04-06T06:07:46;97128.75;;;9.30;45.09
60228;BME280;46091;46.512;6.626;2023-04-06T06:09:49;97132.41;;;9.29;45.25
60228;BME280;46091;46.512;6.626;2023-04-06T06:11:52;97132.22;;;9.30;45.20
60228;BME280;46091;46.512;6.626;2023-04-06T06:13:54;97137.13;;;9.33;45.00
60228;BME280;46091;46.512;6.626;2023-04-06T06:15:57;97137.41;;;9.39;45.13
60228;BME280;46091;46.512;6.626;2023-04-06T06:18:00;97138.41;;;9.38;45.07
60228;BME280;46091;46.512;6.626;2023-04-06T06:20:04;97134.13;;;9.37;45.02
60228;BME280;46091;46.512;6.626;2023-04-06T06:22:07;97139.41;;;9.37;44.98
60228;BME280;46091;46.512;6.626;2023-04-06T06:24:12;97140.88;;;9.39;44.93
60228;BME280;46091;46.512;6.626;2023-04-06T06:26:15;97143.63;;;9.46;44.75
60228;BME280;46091;46.512;6.626;2023-04-06T06:28:18;97136.97;;;9.50;44.86
60228;BME280;46091;46.512;6.626;2023-04-06T06:30:21;97140.44;;;9.50;44.90
60228;BME280;46091;46.512;6.626;2023-04-06T06:32:24;97143.75;;;9.52;44.80
60228;BME280;46091;46.512;6.626;2023-04-06T06:34:27;97137.28;;;9.55;44.76
60228;BME280;46091;46.512;6.626;2023-04-06T06:36:30;97142.19;;;9.58;44.61
60228;BME280;46091;46.512;6.626;2023-04-06T06:38:33;97148.41;;;9.65;44.54
60228;BME280;46091;46.512;6.626;2023-04-06T06:40:37;97151.34;;;9.70;44.39
60228;BME280;46091;46.512;6.626;2023-04-06T06:42:40;97161.53;;;9.73;44.29
60228;BME280;46091;46.512;6.626;2023-04-06T06:44:44;97155.91;;;9.76;44.65
60228;BME280;46091;46.512;6.626;2023-04-06T06:46:47;97156.81;;;9.83;44.34
60228;BME280;46091;46.512;6.626;2023-04-06T06:48:49;97154.00;;;9.85;44.54
60228;BME280;46091;46.512;6.626;2023-04-06T06:50:53;97158.13;;;9.87;44.40
60228;BME280;46091;46.512;6.626;2023-04-06T06:52:55;97153.75;;;9.95;44.41
60228;BME280;46091;46.512;6.626;2023-04-06T06:54:58;97161.31;;;9.98;44.30
60228;BME280;46091;46.512;6.626;2023-04-06T06:57:03;97152.72;;;9.96;44.47
60228;BME280;46091;46.512;6.626;2023-04-06T06:59:05;97154.75;;;9.93;44.31
60228;BME280;46091;46.512;6.626;2023-04-06T07:01:09;97143.00;;;9.96;44.54
60228;BME280;46091;46.512;6.626;2023-04-06T07:03:13;97152.84;;;10.02;44.40
60228;BME280;46091;46.512;6.626;2023-04-06T07:05:16;97153.78;;;10.09;44.43
60228;BME280;46091;46.512;6.626;2023-04-06T07:07:29;97162.16;;;10.13;44.15
60228;BME280;46091;46.512;6.626;2023-04-06T07:09:32;97160.97;;;10.15;44.29
60228;BME280;46091;46.512;6.626;2023-04-06T07:11:35;97158.13;;;10.17;44.37
60228;BME280;46091;46.512;6.626;2023-04-06T07:13:40;97159.44;;;10.21;44.32
60228;BME280;46091;46.512;6.626;2023-04-06T07:15:43;97167.03;;;10.24;44.18
60228;BME280;46091;46.512;6.626;2023-04-06T07:17:46;97170.94;;;10.28;44.19
60228;BME280;46091;46.512;6.626;2023-04-06T07:19:49;97166.94;;;10.32;44.23
60228;BME280;46091;46.512;6.626;2023-04-06T07:21:52;97164.56;;;10.37;44.19
60228;BME280;46091;46.512;6.626;2023-04-06T07:23:55;97157.25;;;10.39;44.02
60228;BME280;46091;46.512;6.626;2023-04-06T07:25:58;97170.28;;;10.41;44.13
60228;BME280;46091;46.512;6.626;2023-04-06T07:28:02;97167.81;;;10.39;44.27
60228;BME280;46091;46.512;6.626;2023-04-06T07:30:08;97165.81;;;10.41;44.47
60228;BME280;46091;46.512;6.626;2023-04-06T07:32:11;97169.13;;;10.43;44.25
60228;BME280;46091;46.512;6.626;2023-04-06T07:34:14;97169.94;;;10.44;44.26
60228;BME280;46091;46.512;6.626;2023-04-06T07:36:17;97167.50;;;10.42;44.47
60228;BME280;46091;46.512;6.626;2023-04-06T07:38:20;97166.00;;;10.40;44.19
60228;BME280;46091;46.512;6.626;2023-04-06T07:40:23;97171.09;;;10.41;44.36
60228;BME280;46091;46.512;6.626;2023-04-06T07:42:27;97168.00;;;10.38;44.30
60228;BME280;46091;46.512;6.626;2023-04-06T07:44:30;97169.13;;;10.43;44.33
60228;BME280;46091;46.512;6.626;2023-04-06T07:46:34;97169.56;;;10.47;44.12
60228;BME280;46091;46.512;6.626;2023-04-06T07:48:37;97176.31;;;10.49;43.96
60228;BME280;46091;46.512;6.626;2023-04-06T07:50:41;97173.28;;;10.53;44.28
60228;BME280;46091;46.512;6.626;2023-04-06T07:52:44;97165.00;;;10.56;44.33
60228;BME280;46091;46.512;6.626;2023-04-06T07:54:47;97175.41;;;10.57;43.99
60228;BME280;46091;46.512;6.626;2023-04-06T07:56:50;97176.22;;;10.58;44.21
60228;BME280;46091;46.512;6.626;2023-04-06T07:58:53;97187.25;;;10.61;44.08
60228;BME280;46091;46.512;6.626;2023-04-06T08:00:58;97181.94;;;10.61;44.17
60228;BME280;46091;46.512;6.626;2023-04-06T08:03:02;97177.13;;;10.65;43.92
60228;BME280;46091;46.512;6.626;2023-04-06T08:05:06;97172.28;;;10.68;43.94
60228;BME280;46091;46.512;6.626;2023-04-06T08:07:10;97174.56;;;10.71;44.24
60228;BME280;46091;46.512;6.626;2023-04-06T08:09:14;97176.00;;;10.74;43.89
60228;BME280;46091;46.512;6.626;2023-04-06T08:11:19;97170.72;;;10.74;44.21
60228;BME280;46091;46.512;6.626;2023-04-06T08:13:22;97173.16;;;10.75;44.11
60228;BME280;46091;46.512;6.626;2023-04-06T08:15:25;97176.09;;;10.81;43.96
60228;BME280;46091;46.512;6.626;2023-04-06T08:17:28;97174.28;;;10.81;44.16
60228;BME280;46091;46.512;6.626;2023-04-06T08:19:34;97176.91;;;10.81;43.79
60228;BME280;46091;46.512;6.626;2023-04-06T08:21:37;97171.63;;;10.81;44.00
60228;BME280;46091;46.512;6.626;2023-04-06T08:23:41;97170.00;;;10.80;44.02
60228;BME280;46091;46.512;6.626;2023-04-06T08:25:44;97180.56;;;10.80;44.21
60228;BME280;46091;46.512;6.626;2023-04-06T08:27:49;97175.91;;;10.82;44.12
60228;BME280;46091;46.512;6.626;2023-04-06T08:29:52;97172.63;;;10.80;44.24
60228;BME280;46091;46.512;6.626;2023-04-06T08:31:56;97176.28;;;10.79;44.04
60228;BME280;46091;46.512;6.626;2023-04-06T08:33:59;97172.63;;;10.80;44.18
60228;BME280;46091;46.512;6.626;2023-04-06T08:36:11;97172.25;;;10.83;43.97
60228;BME280;46091;46.512;6.626;2023-04-06T08:38:14;97173.50;;;10.87;44.04
60228;BME280;46091;46.512;6.626;2023-04-06T08:40:18;97166.69;;;10.93;43.86
60228;BME280;46091;46.512;6.626;2023-04-06T08:42:21;97165.47;;;10.95;43.92
60228;BME280;46091;46.512;6.626;2023-04-06T08:44:27;97165.28;;;10.97;43.79
60228;BME280;46091;46.512;6.626;2023-04-06T08:46:30;97158.56;;;10.94;44.23
60228;BME280;46091;46.512;6.626;2023-04-06T08:48:34;97164.47;;;10.96;44.07
60228;BME280;46091;46.512;6.626;2023-04-06T08:50:38;97164.94;;;11.00;44.17
60228;BME280;46091;46.512;6.626;2023-04-06T08:52:44;97161.72;;;11.04;43.79
60228;BME280;46091;46.512;6.626;2023-04-06T08:54:49;97165.81;;;11.07;43.86
60228;BME280;46091;46.512;6.626;2023-04-06T08:56:52;97160.16;;;11.10;43.83
60228;BME280;46091;46.512;6.626;2023-04-06T08:58:58;97166.91;;;11.13;43.87
60228;BME280;46091;46.512;6.626;2023-04-06T09:01:03;97172.81;;;11.15;44.04
60228;BME280;46091;46.512;6.626;2023-04-06T09:03:08;97166.53;;;11.16;44.18
60228;BME280;46091;46.512;6.626;2023-04-06T09:05:15;97173.25;;;11.18;44.01
60228;BME280;46091;46.512;6.626;2023-04-06T09:07:18;97164.50;;;11.18;44.12
60228;BME280;46091;46.512;6.626;2023-04-06T09:09:22;97175.09;;;11.18;44.00
60228;BME280;46091;46.512;6.626;2023-04-06T09:11:26;97163.88;;;11.16;43.94
60228;BME280;46091;46.512;6.626;2023-04-06T09:13:29;97172.25;;;11.19;44.03
60228;BME280;46091;46.512;6.626;2023-04-06T09:15:33;97173.44;;;11.17;43.86
60228;BME280;46091;46.512;6.626;2023-04-06T09:17:37;97171.91;;;11.22;44.12
60228;BME280;46091;46.512;6.626;2023-04-06T09:19:45;97170.69;;;11.25;44.08
60228;BME280;46091;46.512;6.626;2023-04-06T09:21:48;97169.31;;;11.29;44.07
60228;BME280;46091;46.512;6.626;2023-04-06T09:23:58;97168.47;;;11.28;44.02
60228;BME280;46091;46.512;6.626;2023-04-06T09:26:11;97167.66;;;11.28;43.85
60228;BME280;46091;46.512;6.626;2023-04-06T09:28:14;97162.56;;;11.26;43.85
60228;BME280;46091;46.512;6.626;2023-04-06T09:30:17;97164.41;;;11.26;44.22
60228;BME280;46091;46.512;6.626;2023-04-06T09:32:22;97160.75;;;11.27;43.87
60228;BME280;46091;46.512;6.626;2023-04-06T09:34:25;97168.06;;;11.25;44.06
60228;BME280;46091;46.512;6.626;2023-04-06T09:36:31;97167.22;;;11.24;43.90
60228;BME280;46091;46.512;6.626;2023-04-06T09:38:34;97162.38;;;11.28;43.94
60228;BME280;46091;46.512;6.626;2023-04-06T09:40:47;97160.09;;;11.25;44.19
60228;BME280;46091;46.512;6.626;2023-04-06T09:43:02;97158.28;;;11.25;44.07
60228;BME280;46091;46.512;6.626;2023-04-06T09:45:09;97157.47;;;11.25;44.10
60228;BME280;46091;46.512;6.626;2023-04-06T09:47:14;97161.75;;;11.26;43.80
60228;BME280;46091;46.512;6.626;2023-04-06T09:49:18;97163.19;;;11.28;44.21
60228;BME280;46091;46.512;6.626;2023-04-06T09:51:22;97166.47;;;11.30;44.08
60228;BME280;46091;46.512;6.626;2023-04-06T09:53:30;97160.00;;;11.33;43.96
60228;BME280;46091;46.512;6.626;2023-04-06T09:55:35;97161.63;;;11.34;43.91
60228;BME280;46091;46.512;6.626;2023-04-06T09:57:47;97161.63;;;11.34;44.07
60228;BME280;46091;46.512;6.626;2023-04-06T10:00:00;97164.72;;;11.37;44.23
60228;BME280;46091;46.512;6.626;2023-04-06T10:02:05;97162.50;;;11.41;43.71
60228;BME280;46091;46.512;6.626;2023-04-06T10:04:22;97164.13;;;11.42;43.65
60228;BME280;46091;46.512;6.626;2023-04-06T10:06:31;97160.66;;;11.42;43.54
60228;BME280;46091;46.512;6.626;2023-04-06T10:08:38;97159.50;;;11.44;43.55
60228;BME280;46091;46.512;6.626;2023-04-06T10:10:43;97154.00;;;11.46;43.70
60228;BME280;46091;46.512;6.626;2023-04-06T10:12:47;97156.47;;;11.47;43.69
60228;BME280;46091;46.512;6.626;2023-04-06T10:14:50;97152.81;;;11.48;43.50
60228;BME280;46091;46.512;6.626;2023-04-06T10:16:54;97157.28;;;11.48;43.66
60228;BME280;46091;46.512;6.626;2023-04-06T10:19:03;97155.25;;;11.50;43.19
60228;BME280;46091;46.512;6.626;2023-04-06T10:21:09;97154.44;;;11.49;43.41
60228;BME280;46091;46.512;6.626;2023-04-06T10:23:15;97145.47;;;11.50;43.49
60228;BME280;46091;46.512;6.626;2023-04-06T10:25:28;97149.84;;;11.58;43.40
60228;BME280;46091;46.512;6.626;2023-04-06T10:27:32;97155.38;;;11.63;43.09
60228;BME280;46091;46.512;6.626;2023-04-06T10:29:45;97148.50;;;11.69;43.12
60228;BME280;46091;46.512;6.626;2023-04-06T10:31:48;97156.47;;;11.75;43.17
60228;BME280;46091;46.512;6.626;2023-04-06T10:33:57;97152.28;;;11.81;42.66
60228;BME280;46091;46.512;6.626;2023-04-06T10:36:10;97156.38;;;11.83;42.97
60228;BME280;46091;46.512;6.626;2023-04-06T10:38:13;97162.72;;;11.89;42.69
60228;BME280;46091;46.512;6.626;2023-04-06T10:40:23;97160.72;;;11.91;42.86
60228;BME280;46091;46.512;6.626;2023-04-06T10:42:36;97154.03;;;11.95;42.78
60228;BME280;46091;46.512;6.626;2023-04-06T10:44:42;97152.00;;;11.97;42.33
60228;BME280;46091;46.512;6.626;2023-04-06T10:46:52;97147.78;;;12.03;42.45
60228;BME280;46091;46.512;6.626;2023-04-06T10:48:57;97150.84;;;12.06;42.39
60228;BME280;46091;46.512;6.626;2023-04-06T10:51:01;97154.56;;;12.12;42.38
60228;BME280;46091;46.512;6.626;2023-04-06T10:53:10;97151.31;;;12.16;42.53
60228;BME280;46091;46.512;6.626;2023-04-06T10:55:14;97156.22;;;12.19;42.11
60228;BME280;46091;46.512;6.626;2023-04-06T10:57:27;97150.53;;;12.22;42.09
60228;BME280;46091;46.512;6.626;2023-04-06T10:59:31;97152.81;;;12.26;42.21
60228;BME280;46091;46.512;6.626;2023-04-06T11:01:34;97149.16;;;12.27;42.16
60228;BME280;46091;46.512;6.626;2023-04-06T11:03:42;97148.94;;;12.28;41.86
60228;BME280;46091;46.512;6.626;2023-04-06T11:05:49;97150.19;;;12.32;41.61
60228;BME280;46091;46.512;6.626;2023-04-06T11:07:52;97138.75;;;12.32;41.61
60228;BME280;46091;46.512;6.626;2023-04-06T11:09:55;97140.41;;;12.33;41.52
60228;BME280;46091;46.512;6.626;2023-04-06T11:12:21;97139.00;;;12.37;41.72
60228;BME280;46091;46.512;6.626;2023-04-06T11:14:24;97136.97;;;12.39;41.62
60228;BME280;46091;46.512;6.626;2023-04-06T11:16:30;97146.56;;;12.40;41.54
60228;BME280;46091;46.512;6.626;2023-04-06T11:18:33;97140.03;;;12.42;41.42
60228;BME280;46091;46.512;6.626;2023-04-06T11:20:36;97134.53;;;12.44;41.38
60228;BME280;46091;46.512;6.626;2023-04-06T11:22:52;97133.72;;;12.43;41.34
60228;BME280;46091;46.512;6.626;2023-04-06T11:25:04;97132.72;;;12.44;40.87
60228;BME280;46091;46.512;6.626;2023-04-06T11:27:07;97123.56;;;12.47;40.88
60228;BME280;46091;46.512;6.626;2023-04-06T11:29:12;97122.56;;;12.48;40.63
60228;BME280;46091;46.512;6.626;2023-04-06T11:31:15;97126.22;;;12.53;40.34
60228;BME280;46091;46.512;6.626;2023-04-06T11:33:21;97126.84;;;12.56;40.17
60228;BME280;46091;46.512;6.626;2023-04-06T11:35:24;97125.00;;;12.56;40.19
60228;BME280;46091;46.512;6.626;2023-04-06T11:37:27;97128.94;;;12.60;40.33
60228;BME280;46091;46.512;6.626;2023-04-06T11:39:32;97132.00;;;12.64;39.91
60228;BME280;46091;46.512;6.626;2023-04-06T11:41:36;97119.75;;;12.63;40.03
60228;BME280;46091;46.512;6.626;2023-04-06T11:43:46;97118.72;;;12.64;39.88
60228;BME280;46091;46.512;6.626;2023-04-06T11:45:49;97110.38;;;12.67;39.37
60228;BME280;46091;46.512;6.626;2023-04-06T11:47:56;97111.41;;;12.72;39.40
60228;BME280;46091;46.512;6.626;2023-04-06T11:50:06;97116.13;;;12.77;39.12
60228;BME280;46091;46.512;6.626;2023-04-06T11:52:17;97108.41;;;12.82;38.90
60228;BME280;46091;46.512;6.626;2023-04-06T11:54:29;97108.81;;;12.86;38.91
60228;BME280;46091;46.512;6.626;2023-04-06T11:56:34;97103.09;;;12.89;38.69
60228;BME280;46091;46.512;6.626;2023-04-06T11:58:37;97099.84;;;12.93;38.57
60228;BME280;46091;46.512;6.626;2023-04-06T12:00:40;97101.69;;;12.93;38.65
60228;BME280;46091;46.512;6.626;2023-04-06T12:02:48;97100.88;;;12.92;38.65
60228;BME280;46091;46.512;6.626;2023-04-06T12:04:52;97102.50;;;12.93;38.49
60228;BME280;46091;46.512;6.626;2023-04-06T12:06:55;97107.63;;;12.95;38.17
60228;BME280;46091;46.512;6.626;2023-04-06T12:08:58;97103.94;;;12.96;38.41
60228;BME280;46091;46.512;6.626;2023-04-06T12:11:01;97093.75;;;12.99;38.43
60228;BME280;46091;46.512;6.626;2023-04-06T12:13:05;97095.38;;;13.00;37.98
60228;BME280;46091;46.512;6.626;2023-04-06T12:15:09;97095.16;;;13.02;38.00
60228;BME280;46091;46.512;6.626;2023-04-06T12:17:12;97095.81;;;13.04;38.07
60228;BME280;46091;46.512;6.626;2023-04-06T12:19:15;97090.50;;;13.04;37.88
60228;BME280;46091;46.512;6.626;2023-04-06T12:21:21;97096.00;;;13.02;37.71
60228;BME280;46091;46.512;6.626;2023-04-06T12:23:26;97091.31;;;13.04;37.49
60228;BME280;46091;46.512;6.626;2023-04-06T12:25:29;97089.47;;;13.05;37.29
60228;BME280;46091;46.512;6.626;2023-04-06T12:27:33;97085.81;;;13.06;37.30
60228;BME280;46091;46.512;6.626;2023-04-06T12:29:37;97078.66;;;13.06;37.39
60228;BME280;46091;46.512;6.626;2023-04-06T12:31:41;97091.31;;;13.11;37.22
60228;BME280;46091;46.512;6.626;2023-04-06T12:33:49;97086.00;;;13.11;37.01
60228;BME280;46091;46.512;6.626;2023-04-06T12:35:52;97092.13;;;13.11;36.92
60228;BME280;46091;46.512;6.626;2023-04-06T12:37:56;97088.66;;;13.11;36.82
60228;BME280;46091;46.512;6.626;2023-04-06T12:39:59;97088.44;;;13.12;36.54
60228;BME280;46091;46.512;6.626;2023-04-06T12:42:02;97072.53;;;13.12;36.65
60228;BME280;46091;46.512;6.626;2023-04-06T12:44:06;97084.19;;;13.18;36.53
60228;BME280;46091;46.512;6.626;2023-04-06T12:46:11;97079.91;;;13.17;36.49
60228;BME280;46091;46.512;6.626;2023-04-06T12:48:14;97083.19;;;13.19;36.14
60228;BME280;46091;46.512;6.626;2023-04-06T12:50:17;97084.81;;;13.20;36.15
60228;BME280;46091;46.512;6.626;2023-04-06T12:52:20;97083.59;;;13.23;36.05
60228;BME280;46091;46.512;6.626;2023-04-06T12:54:23;97080.13;;;13.22;36.24
60228;BME280;46091;46.512;6.626;2023-04-06T12:56:28;97077.47;;;13.22;35.83
60228;BME280;46091;46.512;6.626;2023-04-06T12:58:31;97081.16;;;13.28;35.60
60228;BME280;46091;46.512;6.626;2023-04-06T13:00:35;97077.06;;;13.32;35.82
60228;BME280;46091;46.512;6.626;2023-04-06T13:02:39;97080.13;;;13.35;35.43
60228;BME280;46091;46.512;6.626;2023-04-06T13:04:48;97073.41;;;13.39;35.48
60228;BME280;46091;46.512;6.626;2023-04-06T13:06:51;97068.72;;;13.42;35.49
60228;BME280;46091;46.512;6.626;2023-04-06T13:08:54;97074.22;;;13.40;35.59
60228;BME280;46091;46.512;6.626;2023-04-06T13:10:57;97072.81;;;13.37;35.27
60228;BME280;46091;46.512;6.626;2023-04-06T13:13:00;97061.38;;;13.37;35.21
60228;BME280;46091;46.512;6.626;2023-04-06T13:15:04;97069.50;;;13.35;35.11
60228;BME280;46091;46.512;6.626;2023-04-06T13:17:08;97063.59;;;13.33;35.23
60228;BME280;46091;46.512;6.626;2023-04-06T13:19:12;97055.63;;;13.33;34.75
60228;BME280;46091;46.512;6.626;2023-04-06T13:21:16;97056.22;;;13.35;34.73
60228;BME280;46091;46.512;6.626;2023-04-06T13:23:21;97048.91;;;13.37;34.75
60228;BME280;46091;46.512;6.626;2023-04-06T13:25:26;97049.72;;;13.38;34.81
60228;BME280;46091;46.512;6.626;2023-04-06T13:27:29;97040.53;;;13.40;34.59
60228;BME280;46091;46.512;6.626;2023-04-06T13:29:35;97041.53;;;13.39;34.67
60228;BME280;46091;46.512;6.626;2023-04-06T13:31:38;97045.84;;;13.40;34.60
60228;BME280;46091;46.512;6.626;2023-04-06T13:33:42;97045.84;;;13.40;34.05
60228;BME280;46091;46.512;6.626;2023-04-06T13:35:47;97044.00;;;13.41;34.24
60228;BME280;46091;46.512;6.626;2023-04-06T13:37:50;97042.75;;;13.44;34.31
60228;BME280;46091;46.512;6.626;2023-04-06T13:39:53;97045.41;;;13.44;33.91
60228;BME280;46091;46.512;6.626;2023-04-06T13:41:57;97040.31;;;13.42;34.05
60228;BME280;46091;46.512;6.626;2023-04-06T13:44:01;97042.97;;;13.42;33.83
60228;BME280;46091;46.512;6.626;2023-04-06T13:46:04;97035.81;;;13.43;33.55
60228;BME280;46091;46.512;6.626;2023-04-06T13:48:07;97035.59;;;13.44;33.46
60228;BME280;46091;46.512;6.626;2023-04-06T13:50:10;97037.03;;;13.47;33.70
60228;BME280;46091;46.512;6.626;2023-04-06T13:52:15;97042.97;;;13.49;33.28
60228;BME280;46091;46.512;6.626;2023-04-06T13:54:18;97026.63;;;13.52;32.97
60228;BME280;46091;46.512;6.626;2023-04-06T13:56:21;97032.53;;;13.54;33.07
60228;BME280;46091;46.512;6.626;2023-04-06T13:58:24;97025.78;;;13.58;32.96
60228;BME280;46091;46.512;6.626;2023-04-06T14:00:27;97026.00;;;13.63;33.06
60228;BME280;46091;46.512;6.626;2023-04-06T14:02:30;97028.22;;;13.66;32.90
60228;BME280;46091;46.512;6.626;2023-04-06T14:04:33;97028.44;;;13.71;32.96
60228;BME280;46091;46.512;6.626;2023-04-06T14:06:37;97028.41;;;13.78;32.81
60228;BME280;46091;46.512;6.626;2023-04-06T14:08:41;97028.41;;;13.84;32.92
60228;BME280;46091;46.512;6.626;2023-04-06T14:10:44;97024.31;;;13.88;32.93
60228;BME280;46091;46.512;6.626;2023-04-06T14:12:47;97023.28;;;13.89;32.84
60228;BME280;46091;46.512;6.626;2023-04-06T14:14:50;97023.06;;;13.91;32.64
60228;BME280;46091;46.512;6.626;2023-04-06T14:16:53;97019.19;;;13.93;33.00
60228;BME280;46091;46.512;6.626;2023-04-06T14:18:57;97017.16;;;13.95;32.96
60228;BME280;46091;46.512;6.626;2023-04-06T14:21:00;97010.59;;;13.98;33.06
60228;BME280;46091;46.512;6.626;2023-04-06T14:23:03;97014.88;;;13.99;33.04
60228;BME280;46091;46.512;6.626;2023-04-06T14:25:08;97007.13;;;13.97;33.06
60228;BME280;46091;46.512;6.626;2023-04-06T14:27:12;97008.75;;;13.98;32.86
60228;BME280;46091;46.512;6.626;2023-04-06T14:29:16;97005.66;;;14.02;33.07
60228;BME280;46091;46.512;6.626;2023-04-06T14:31:19;97005.88;;;14.00;33.24
60228;BME280;46091;46.512;6.626;2023-04-06T14:33:21;97014.06;;;13.98;33.28
60228;BME280;46091;46.512;6.626;2023-04-06T14:35:24;97002.84;;;13.96;33.27
60228;BME280;46091;46.512;6.626;2023-04-06T14:37:29;97014.28;;;13.97;32.99
60228;BME280;46091;46.512;6.626;2023-04-06T14:39:32;97012.88;;;13.94;33.35
60228;BME280;46091;46.512;6.626;2023-04-06T14:41:36;97010.19;;;13.94;33.37
60228;BME280;46091;46.512;6.626;2023-04-06T14:43:40;97005.91;;;13.93;33.32
60228;BME280;46091;46.512;6.626;2023-04-06T14:45:42;97018.19;;;13.94;33.14
60228;BME280;46091;46.512;6.626;2023-04-06T14:47:45;97012.88;;;13.94;33.58
60228;BME280;46091;46.512;6.626;2023-04-06T14:49:51;97013.47;;;13.96;33.42
60228;BME280;46091;46.512;6.626;2023-04-06T14:51:54;97020.84;;;13.94;33.39
60228;BME280;46091;46.512;6.626;2023-04-06T14:54:00;97016.34;;;13.95;33.74
60228;BME280;46091;46.512;6.626;2023-04-06T14:56:05;97012.66;;;13.96;33.59
60228;BME280;46091;46.512;6.626;2023-04-06T14:58:11;97021.22;;;13.91;33.73
60228;BME280;46091;46.512;6.626;2023-04-06T15:00:15;97009.59;;;13.86;33.80
60228;BME280;46091;46.512;6.626;2023-04-06T15:02:19;97010.84;;;13.83;33.69
60228;BME280;46091;46.512;6.626;2023-04-06T15:04:23;97003.69;;;13.84;33.99
60228;BME280;46091;46.512;6.626;2023-04-06T15:06:26;97009.59;;;13.79;34.10
60228;BME280;46091;46.512;6.626;2023-04-06T15:08:29;97008.78;;;13.79;33.89
60228;BME280;46091;46.512;6.626;2023-04-06T15:10:34;97004.50;;;13.78;34.11
60228;BME280;46091;46.512;6.626;2023-04-06T15:12:37;96996.94;;;13.81;33.97
60228;BME280;46091;46.512;6.626;2023-04-06T15:14:41;97001.25;;;13.82;34.11
60228;BME280;46091;46.512;6.626;2023-04-06T15:16:44;96994.47;;;13.86;33.93
60228;BME280;46091;46.512;6.626;2023-04-06T15:18:47;96995.88;;;13.89;34.08
60228;BME280;46091;46.512;6.626;2023-04-06T15:20:51;97001.00;;;13.90;33.98
60228;BME280;46091;46.512;6.626;2023-04-06T15:22:54;96995.69;;;13.90;33.99
60228;BME280;46091;46.512;6.626;2023-04-06T15:24:57;96996.91;;;13.94;33.84
60228;BME280;46091;46.512;6.626;2023-04-06T15:27:00;97000.59;;;13.93;33.56
60228;BME280;46091;46.512;6.626;2023-04-06T15:29:03;96995.66;;;13.97;33.64
60228;BME280;46091;46.512;6.626;2023-04-06T15:31:14;96999.75;;;13.99;33.45
60228;BME280;46091;46.512;6.626;2023-04-06T15:33:34;97000.34;;;14.02;33.43
60228;BME280;46091;46.512;6.626;2023-04-06T15:35:36;96998.72;;;14.01;33.20
60228;BME280;46091;46.512;6.626;2023-04-06T15:37:43;96988.94;;;13.94;33.43
60228;BME280;46091;46.512;6.626;2023-04-06T15:39:47;96979.56;;;13.85;33.52
60228;BME280;46091;46.512;6.626;2023-04-06T15:41:50;96987.72;;;13.90;33.07
60228;BME280;46091;46.512;6.626;2023-04-06T15:43:54;96990.38;;;13.90;32.83
60228;BME280;46091;46.512;6.626;2023-04-06T15:45:57;96986.06;;;13.89;32.91
60228;BME280;46091;46.512;6.626;2023-04-06T15:48:02;96980.16;;;13.87;33.08
60228;BME280;46091;46.512;6.626;2023-04-06T15:50:06;96978.09;;;13.89;32.67
60228;BME280;46091;46.512;6.626;2023-04-06T15:52:10;96968.28;;;13.90;33.01
60228;BME280;46091;46.512;6.626;2023-04-06T15:54:13;96972.34;;;13.92;32.59
60228;BME280;46091;46.512;6.626;2023-04-06T15:56:16;96969.53;;;13.94;32.57
60228;BME280;46091;46.512;6.626;2023-04-06T15:58:19;96977.28;;;13.95;32.62
60228;BME280;46091;46.512;6.626;2023-04-06T16:00:23;96961.34;;;13.95;32.56
60228;BME280;46091;46.512;6.626;2023-04-06T16:02:26;96974.78;;;14.01;32.52
60228;BME280;46091;46.512;6.626;2023-04-06T16:04:31;96975.59;;;14.01;32.51
60228;BME280;46091;46.512;6.626;2023-04-06T16:06:35;96974.78;;;14.01;32.41
60228;BME280;46091;46.512;6.626;2023-04-06T16:08:38;96976.63;;;14.07;32.12
60228;BME280;46091;46.512;6.626;2023-04-06T16:10:42;96978.25;;;14.08;32.51
60228;BME280;46091;46.512;6.626;2023-04-06T16:12:45;96980.09;;;14.07;32.26
60228;BME280;46091;46.512;6.626;2023-04-06T16:14:48;96979.28;;;14.07;32.65
60228;BME280;46091;46.512;6.626;2023-04-06T16:16:52;96982.78;;;14.01;32.72
60228;BME280;46091;46.512;6.626;2023-04-06T16:18:55;96991.38;;;13.96;32.85